createdAt,value
2018-02-23T00:01:59.682Z,45.00
2018-02-23T00:04:31.340Z,45.20
2018-02-23T00:07:02.528Z,45.00
2018-02-23T00:09:34.315Z,44.50
2018-02-23T00:12:06.234Z,44.00
2018-02-23T00:14:37.488Z,44.00
2018-02-23T00:17:09.492Z,44.40
2018-02-23T00:19:40.800Z,44.40
2018-02-23T00:22:11.991Z,44.70
2018-02-23T00:24:43.228Z,44.70
2018-02-23T00:27:14.476Z,44.70
2018-02-23T00:29:45.712Z,44.60
2018-02-23T00:32:16.923Z,44.80
2018-02-23T00:34:48.883Z,44.70
2018-02-23T00:37:20.120Z,44.70
2018-02-23T00:39:52.440Z,44.70
2018-02-23T00:42:23.611Z,44.70
2018-02-23T00:44:55.163Z,44.70
2018-02-23T00:47:26.344Z,45.10
2018-02-23T00:49:57.580Z,45.20
2018-02-23T00:52:29.587Z,45.80
2018-02-23T00:55:00.782Z,45.80
2018-02-23T00:57:32.924Z,46.80
2018-02-23T01:00:04.194Z,46.70
2018-02-23T01:02:35.444Z,47.30
2018-02-23T01:05:07.355Z,48.10
2018-02-23T01:07:38.579Z,47.90
2018-02-23T01:10:09.882Z,47.90
2018-02-23T01:12:41.325Z,48.00
2018-02-23T01:15:12.576Z,48.10
2018-02-23T01:17:43.769Z,48.00
2018-02-23T01:20:15.065Z,48.10
2018-02-23T01:22:46.323Z,48.20
2018-02-23T01:25:18.630Z,48.40
2018-02-23T01:27:49.850Z,48.40
2018-02-23T01:30:22.042Z,48.50
2018-02-23T01:32:53.232Z,48.50
2018-02-23T01:35:24.608Z,48.70
2018-02-23T01:37:56.581Z,48.70
2018-02-23T01:40:27.772Z,48.80
2018-02-23T01:42:58.953Z,48.70
2018-02-23T01:45:30.864Z,48.30
2018-02-23T01:48:02.141Z,47.60
2018-02-23T01:50:45.692Z,48.00
2018-02-23T01:53:16.944Z,47.90
2018-02-23T01:55:48.209Z,47.80
2018-02-23T01:58:19.458Z,47.70
2018-02-23T02:00:50.734Z,47.40
2018-02-23T02:03:21.926Z,46.90
2018-02-23T02:05:53.172Z,46.90
2018-02-23T02:08:24.455Z,47.70
2018-02-23T02:10:55.715Z,47.30
2018-02-23T02:13:26.904Z,47.20
2018-02-23T02:15:58.161Z,47.20
2018-02-23T02:18:29.398Z,47.30
2018-02-23T02:21:01.599Z,46.20
2018-02-23T02:23:32.801Z,46.70
2018-02-23T02:26:04.763Z,45.10
2018-02-23T02:28:36.330Z,45.40
2018-02-23T02:31:07.552Z,46.00
2018-02-23T02:33:38.802Z,45.20
2018-02-23T02:36:10.052Z,45.20
2018-02-23T02:38:41.530Z,45.40
2018-02-23T02:41:12.782Z,45.50
2018-02-23T02:43:44.040Z,45.70
2018-02-23T02:46:15.292Z,45.80
2018-02-23T02:48:46.487Z,45.70
2018-02-23T02:51:17.736Z,45.80
2018-02-23T02:53:48.955Z,45.70
2018-02-23T02:56:21.564Z,46.20
2018-02-23T02:58:52.795Z,46.20
2018-02-23T03:01:24.044Z,46.40
2018-02-23T03:03:55.296Z,46.40
2018-02-23T03:06:26.554Z,46.50
2018-02-23T03:08:57.777Z,46.90
2018-02-23T03:11:29.643Z,47.10
2018-02-23T03:14:00.935Z,47.00
2018-02-23T03:16:32.175Z,47.20
2018-02-23T03:19:03.694Z,47.40
2018-02-23T03:21:34.932Z,47.70
2018-02-23T03:24:06.149Z,47.80
2018-02-23T03:26:37.385Z,48.00
2018-02-23T03:29:09.384Z,48.70
2018-02-23T03:31:40.633Z,48.70
2018-02-23T03:34:12.096Z,49.00
2018-02-23T03:36:44.073Z,49.40
2018-02-23T03:39:15.323Z,49.40
2018-02-23T03:41:46.637Z,50.10
2018-02-23T03:44:17.863Z,50.40
2018-02-23T03:46:49.055Z,50.60
2018-02-23T03:49:20.581Z,50.90
2018-02-23T03:51:52.604Z,51.30
2018-02-23T03:54:23.795Z,51.30
2018-02-23T03:56:55.021Z,51.80
2018-02-23T03:59:26.208Z,52.00
2018-02-23T04:01:58.241Z,52.20
2018-02-23T04:04:29.474Z,52.20
2018-02-23T04:07:00.675Z,51.80
2018-02-23T04:09:32.999Z,52.50
2018-02-23T04:12:04.180Z,52.50
2018-02-23T04:14:36.187Z,52.90
2018-02-23T04:17:07.380Z,52.80
2018-02-23T04:19:39.356Z,53.20
2018-02-23T04:22:11.371Z,53.40
2018-02-23T04:24:42.597Z,53.30
2018-02-23T04:27:13.804Z,53.20
2018-02-23T04:29:45.071Z,53.80
2018-02-23T04:32:16.242Z,53.90
2018-02-23T04:34:47.504Z,53.90
2018-02-23T04:37:18.761Z,53.90
2018-02-23T04:39:50.067Z,54.10
2018-02-23T04:42:21.346Z,53.90
2018-02-23T04:44:52.652Z,54.00
2018-02-23T04:47:23.888Z,54.00
2018-02-23T04:49:55.176Z,54.00
2018-02-23T04:52:26.421Z,53.80
2018-02-23T04:54:57.639Z,54.00
2018-02-23T04:57:29.615Z,54.40
2018-02-23T05:00:01.636Z,54.50
2018-02-23T05:02:33.069Z,54.50
2018-02-23T05:05:04.672Z,54.60
2018-02-23T05:07:35.917Z,54.80
2018-02-23T05:10:07.451Z,55.10
2018-02-23T05:12:38.664Z,55.60
2018-02-23T05:15:09.965Z,55.80
2018-02-23T05:17:41.158Z,55.50
2018-02-23T05:20:12.519Z,55.30
2018-02-23T05:22:43.845Z,55.30
2018-02-23T05:25:15.525Z,55.10
2018-02-23T05:27:46.769Z,55.30
2018-02-23T05:30:18.351Z,55.30
2018-02-23T05:32:49.668Z,55.30
2018-02-23T05:35:21.326Z,55.90
2018-02-23T05:37:52.589Z,55.70
2018-02-23T05:40:23.895Z,56.10
2018-02-23T05:42:55.234Z,55.90
2018-02-23T05:45:27.192Z,56.40
2018-02-23T05:47:59.187Z,57.00
2018-02-23T05:50:30.740Z,56.30
2018-02-23T05:53:02.130Z,56.50
2018-02-23T05:55:33.324Z,56.40
2018-02-23T05:58:04.703Z,56.40
2018-02-23T06:00:35.992Z,56.60
2018-02-23T06:03:08.064Z,57.10
2018-02-23T06:05:40.020Z,57.10
2018-02-23T06:08:12.320Z,57.00
2018-02-23T06:10:43.580Z,57.00
2018-02-23T06:13:14.827Z,57.30
2018-02-23T06:15:52.193Z,57.30
2018-02-23T06:18:29.581Z,57.10
2018-02-23T06:21:00.835Z,57.10
2018-02-23T06:23:32.131Z,57.40
2018-02-23T06:26:03.579Z,57.50
2018-02-23T06:28:34.756Z,57.50
2018-02-23T06:31:06.090Z,57.50
2018-02-23T06:33:37.670Z,57.00
2018-02-23T06:36:08.857Z,57.10
2018-02-23T06:38:40.182Z,57.10
2018-02-23T06:41:11.424Z,57.10
2018-02-23T06:43:42.746Z,57.30
2018-02-23T06:46:13.955Z,56.90
2018-02-23T06:48:45.964Z,57.70
2018-02-23T06:51:17.171Z,57.60
2018-02-23T06:53:48.806Z,57.60
2018-02-23T06:56:19.972Z,57.00
2018-02-23T06:58:51.654Z,57.10
2018-02-23T07:01:22.876Z,57.10
2018-02-23T07:03:54.174Z,57.20
2018-02-23T07:06:25.390Z,57.30
2018-02-23T07:08:56.811Z,57.10
2018-02-23T07:11:28.040Z,57.20
2018-02-23T07:13:59.986Z,56.80
2018-02-23T07:16:31.254Z,56.80
2018-02-23T07:19:02.645Z,56.90
2018-02-23T07:21:33.925Z,57.10
2018-02-23T07:24:05.270Z,57.00
2018-02-23T07:26:36.855Z,56.70
2018-02-23T07:29:08.075Z,56.30
2018-02-23T07:31:39.367Z,56.20
2018-02-23T07:34:10.591Z,56.10
2018-02-23T07:36:41.879Z,55.70
2018-02-23T07:39:13.124Z,55.50
2018-02-23T07:41:44.411Z,55.40
2018-02-23T07:44:16.371Z,55.20
2018-02-23T07:46:48.428Z,55.20
2018-02-23T07:49:20.432Z,55.20
2018-02-23T07:51:51.726Z,55.20
2018-02-23T07:54:22.952Z,55.40
2018-02-23T07:56:54.287Z,55.10
2018-02-23T07:59:25.535Z,55.10
2018-02-23T08:01:56.762Z,55.50
2018-02-23T08:04:28.040Z,55.70
2018-02-23T08:06:59.287Z,55.80
2018-02-23T08:09:30.586Z,55.90
2018-02-23T08:12:02.132Z,55.50
2018-02-23T08:14:33.352Z,55.10
2018-02-23T08:17:05.413Z,55.10
2018-02-23T08:19:36.673Z,55.10
2018-02-23T08:22:08.676Z,55.70
2018-02-23T08:24:39.883Z,55.50
2018-02-23T08:27:11.136Z,55.10
2018-02-23T08:29:42.305Z,55.10
2018-02-23T08:32:13.602Z,54.90
2018-02-23T08:34:44.824Z,54.50
2018-02-23T08:37:16.434Z,54.30
2018-02-23T08:39:48.457Z,54.20
2018-02-23T08:42:20.596Z,53.80
2018-02-23T08:44:51.791Z,53.80
2018-02-23T08:47:23.275Z,54.10
2018-02-23T08:49:54.491Z,53.50
2018-02-23T08:52:25.758Z,53.70
2018-02-23T08:54:57.079Z,53.40
2018-02-23T08:57:28.297Z,53.30
2018-02-23T09:00:00.301Z,53.10
2018-02-23T09:02:31.551Z,53.10
2018-02-23T09:05:02.922Z,52.40
2018-02-23T09:07:34.107Z,52.50
2018-02-23T09:10:05.396Z,52.20
2018-02-23T09:12:36.726Z,51.80
2018-02-23T09:15:07.965Z,51.80
2018-02-23T09:17:39.150Z,51.90
2018-02-23T09:20:11.199Z,51.80
2018-02-23T09:22:42.419Z,51.40
2018-02-23T09:25:13.721Z,50.40
2018-02-23T09:27:45.790Z,50.50
2018-02-23T09:30:17.806Z,49.10
2018-02-23T09:32:56.185Z,49.00
2018-02-23T09:35:27.395Z,48.90
2018-02-23T09:37:59.326Z,47.10
2018-02-23T09:40:30.556Z,47.10
2018-02-23T09:43:01.772Z,47.30
2018-02-23T09:45:33.056Z,46.70
2018-02-23T09:48:04.296Z,46.50
2018-02-23T09:50:35.951Z,46.30
2018-02-23T09:53:07.306Z,46.70
2018-02-23T09:55:38.635Z,46.40
2018-02-23T09:58:10.383Z,45.90
2018-02-23T10:00:42.365Z,45.40
2018-02-23T10:03:14.607Z,45.60
2018-02-23T10:05:46.467Z,44.90
2018-02-23T10:08:18.536Z,44.90
2018-02-23T10:10:49.931Z,45.20
2018-02-23T10:13:21.530Z,45.60
2018-02-23T10:15:53.281Z,45.80
2018-02-23T10:18:25.257Z,45.70
2018-02-23T10:20:56.658Z,45.40
2018-02-23T10:23:28.580Z,43.90
2018-02-23T10:26:00.096Z,43.80
2018-02-23T10:28:31.323Z,43.50
2018-02-23T10:31:02.627Z,43.70
2018-02-23T10:33:33.842Z,43.90
2018-02-23T10:36:05.155Z,45.00
2018-02-23T10:38:36.588Z,44.30
2018-02-23T10:41:07.853Z,43.70
2018-02-23T10:43:40.146Z,42.90
2018-02-23T10:46:12.070Z,42.90
2018-02-23T10:48:46.656Z,43.10
2018-02-23T10:51:18.916Z,43.40
2018-02-23T10:53:51.399Z,42.40
2018-02-23T10:56:23.654Z,42.50
2018-02-23T10:58:54.890Z,42.40
2018-02-23T11:01:26.159Z,42.20
2018-02-23T11:03:57.422Z,42.20
2018-02-23T11:06:29.616Z,42.40
2018-02-23T11:09:01.580Z,42.30
2018-02-23T11:11:33.637Z,42.70
2018-02-23T11:14:05.805Z,42.70
2018-02-23T11:16:37.305Z,42.60
2018-02-23T11:19:09.356Z,42.60
2018-02-23T11:21:40.702Z,42.40
2018-02-23T11:24:12.132Z,42.60
2018-02-23T11:26:44.182Z,42.80
2018-02-23T11:29:16.132Z,42.50
2018-02-23T11:31:48.465Z,42.00
2018-02-23T11:34:19.768Z,41.90
2018-02-23T11:36:51.468Z,41.40
2018-02-23T11:39:23.483Z,41.40
2018-02-23T11:41:54.708Z,40.90
2018-02-23T11:44:26.759Z,40.50
2018-02-23T11:46:58.178Z,40.40
2018-02-23T11:49:29.455Z,40.20
2018-02-23T11:52:00.707Z,39.60
2018-02-23T11:54:31.968Z,39.40
2018-02-23T11:57:03.215Z,38.60
2018-02-23T11:59:34.476Z,39.10
2018-02-23T12:02:05.736Z,39.50
2018-02-23T12:04:37.056Z,38.90
2018-02-23T12:07:08.489Z,39.70
2018-02-23T12:09:40.012Z,39.80
2018-02-23T12:12:11.219Z,40.10
2018-02-23T12:14:42.475Z,40.80
2018-02-23T12:17:13.673Z,40.20
2018-02-23T12:19:45.982Z,39.60
2018-02-23T12:22:17.231Z,40.20
2018-02-23T12:24:49.024Z,40.20
2018-02-23T12:27:21.146Z,39.80
2018-02-23T12:29:52.459Z,39.80
2018-02-23T12:32:23.782Z,39.90
2018-02-23T12:34:55.148Z,38.70
2018-02-23T12:37:26.464Z,37.40
2018-02-23T12:39:57.936Z,37.00
2018-02-23T12:42:29.151Z,36.30
2018-02-23T12:45:00.371Z,35.90
2018-02-23T12:47:31.679Z,35.20
2018-02-23T12:50:02.959Z,35.60
2018-02-23T12:52:34.195Z,36.50
2018-02-23T12:55:05.409Z,37.80
2018-02-23T12:57:37.385Z,37.30
2018-02-23T13:00:08.572Z,37.30
2018-02-23T13:02:39.795Z,37.70
2018-02-23T13:05:11.048Z,37.00
2018-02-23T13:07:42.345Z,36.90
2018-02-23T13:10:14.430Z,35.50
2018-02-23T13:12:45.668Z,35.40
2018-02-23T13:15:17.963Z,34.90
2018-02-23T13:17:49.238Z,35.00
2018-02-23T13:20:20.460Z,35.10
2018-02-23T13:22:51.844Z,34.80
2018-02-23T13:25:23.087Z,35.30
2018-02-23T13:28:00.472Z,34.70
2018-02-23T13:30:31.719Z,35.00
2018-02-23T13:33:03.708Z,34.10
2018-02-23T13:35:34.939Z,34.10
2018-02-23T13:38:06.125Z,34.10
2018-02-23T13:40:37.372Z,33.60
2018-02-23T13:43:08.606Z,34.20
2018-02-23T13:45:39.881Z,34.00
2018-02-23T13:48:11.111Z,33.50
2018-02-23T13:50:42.360Z,32.30
2018-02-23T13:53:15.429Z,32.10
2018-02-23T13:55:46.708Z,31.70
2018-02-23T13:58:18.562Z,31.50
2018-02-23T14:00:50.434Z,31.50
2018-02-23T14:03:21.763Z,31.30
2018-02-23T14:05:53.230Z,30.30
2018-02-23T14:08:25.608Z,31.90
2018-02-23T14:10:57.617Z,32.60
2018-02-23T14:13:28.940Z,32.60
2018-02-23T14:16:00.942Z,33.00
2018-02-23T14:18:32.279Z,32.90
2018-02-23T14:21:03.496Z,34.30
2018-02-23T14:23:35.457Z,35.40
2018-02-23T14:26:07.380Z,34.70
2018-02-23T14:28:39.101Z,35.30
2018-02-23T14:31:10.297Z,34.70
2018-02-23T14:33:42.378Z,35.90
2018-02-23T14:36:14.354Z,36.10
2018-02-23T14:38:45.605Z,36.00
2018-02-23T14:41:16.868Z,35.60
2018-02-23T14:43:48.218Z,34.70
2018-02-23T14:46:19.684Z,34.10
2018-02-23T14:49:03.455Z,33.70
2018-02-23T14:51:34.664Z,32.80
2018-02-23T14:54:05.931Z,32.80
2018-02-23T14:56:37.551Z,33.50
2018-02-23T14:59:08.733Z,33.90
2018-02-23T15:01:39.998Z,34.00
2018-02-23T15:04:11.989Z,35.10
2018-02-23T15:06:43.248Z,35.10
2018-02-23T15:09:29.615Z,34.10
2018-02-23T15:12:01.589Z,34.20
2018-02-23T15:14:32.759Z,34.20
2018-02-23T15:17:04.007Z,33.60
2018-02-23T15:19:35.272Z,33.00
2018-02-23T15:22:06.514Z,33.20
2018-02-23T15:24:37.682Z,33.50
2018-02-23T15:27:09.656Z,34.50
2018-02-23T15:29:41.707Z,33.30
2018-02-23T15:32:24.924Z,33.70
2018-02-23T15:34:56.849Z,34.80
2018-02-23T15:37:28.050Z,34.70
2018-02-23T15:39:59.549Z,35.30
2018-02-23T15:42:30.739Z,35.10
2018-02-23T15:45:01.986Z,35.80
2018-02-23T15:47:36.180Z,34.90
2018-02-23T15:50:14.073Z,34.20
2018-02-23T15:52:45.458Z,34.10
2018-02-23T15:55:16.973Z,33.90
2018-02-23T15:57:55.159Z,33.30
2018-02-23T16:00:26.437Z,33.30
2018-02-23T16:02:57.662Z,33.50
2018-02-23T16:05:29.705Z,33.10
2018-02-23T16:08:00.918Z,33.10
2018-02-23T16:10:32.274Z,32.20
2018-02-23T16:13:03.497Z,31.50
2018-02-23T16:15:34.752Z,32.30
2018-02-23T16:18:05.978Z,32.20
2018-02-23T16:20:37.406Z,32.50
2018-02-23T16:23:08.616Z,32.10
2018-02-23T16:25:40.141Z,32.00
2018-02-23T16:28:11.333Z,32.20
2018-02-23T16:30:42.611Z,31.90
2018-02-23T16:33:14.579Z,32.00
2018-02-23T16:35:45.823Z,32.00
2018-02-23T16:38:17.086Z,31.50
2018-02-23T16:40:48.329Z,32.10
2018-02-23T16:43:19.552Z,32.30
2018-02-23T16:45:50.795Z,32.50
2018-02-23T16:48:23.080Z,33.90
2018-02-23T16:50:54.336Z,33.20
2018-02-23T16:53:25.629Z,33.20
2018-02-23T16:55:56.812Z,33.60
2018-02-23T16:58:28.018Z,34.20
2018-02-23T17:00:59.248Z,34.70
2018-02-23T17:03:30.497Z,34.70
2018-02-23T17:06:01.701Z,35.00
2018-02-23T17:08:32.928Z,35.30
2018-02-23T17:11:04.179Z,35.60
2018-02-23T17:13:35.387Z,35.60
2018-02-23T17:16:07.354Z,35.60
2018-02-23T17:18:39.360Z,35.70
2018-02-23T17:21:10.665Z,35.60
2018-02-23T17:23:42.578Z,35.60
2018-02-23T17:26:14.627Z,35.70
2018-02-23T17:28:45.807Z,35.70
2018-02-23T17:31:17.165Z,35.70
2018-02-23T17:33:48.323Z,36.00
2018-02-23T17:36:20.272Z,36.30
2018-02-23T17:38:51.522Z,36.20
2018-02-23T17:41:23.536Z,37.00
2018-02-23T17:43:54.771Z,36.50
2018-02-23T17:46:25.960Z,36.40
2018-02-23T17:48:57.176Z,36.50
2018-02-23T17:51:28.622Z,36.60
2018-02-23T17:54:00.176Z,36.50
2018-02-23T17:56:31.364Z,36.70
2018-02-23T17:59:03.363Z,36.80
2018-02-23T18:01:34.627Z,36.80
2018-02-23T18:04:05.823Z,36.50
2018-02-23T18:06:37.061Z,36.70
2018-02-23T18:09:09.017Z,36.70
2018-02-23T18:11:40.318Z,36.70
2018-02-23T18:14:11.787Z,37.00
2018-02-23T18:16:42.942Z,36.80
2018-02-23T18:19:14.922Z,37.00
2018-02-23T18:21:46.908Z,37.30
2018-02-23T18:24:18.155Z,37.20
2018-02-23T18:26:49.349Z,37.20
2018-02-23T18:29:21.368Z,37.50
2018-02-23T18:31:52.634Z,37.40
2018-02-23T18:34:24.060Z,37.70
2018-02-23T18:36:55.242Z,37.50
2018-02-23T18:39:26.491Z,37.50
2018-02-23T18:41:57.708Z,37.70
2018-02-23T18:44:28.948Z,37.80
2018-02-23T18:47:00.111Z,38.70
2018-02-23T18:49:31.622Z,38.10
2018-02-23T18:52:02.852Z,37.80
2018-02-23T18:54:34.854Z,39.00
2018-02-23T18:57:06.032Z,38.20
2018-02-23T18:59:37.415Z,38.20
2018-02-23T19:02:08.623Z,38.00
2018-02-23T19:04:39.909Z,38.00
2018-02-23T19:07:11.148Z,37.50
2018-02-23T19:09:42.508Z,37.60
2018-02-23T19:12:13.808Z,37.80
2018-02-23T19:14:45.805Z,37.80
2018-02-23T19:17:17.077Z,37.70
2018-02-23T19:19:48.630Z,37.60
2018-02-23T19:22:19.856Z,37.50
2018-02-23T19:24:51.424Z,37.80
2018-02-23T19:27:22.709Z,37.60
2018-02-23T19:29:54.736Z,37.60
2018-02-23T19:32:25.949Z,37.60
2018-02-23T19:34:57.542Z,37.60
2018-02-23T19:37:28.752Z,37.70
2018-02-23T19:40:00.020Z,37.50
2018-02-23T19:42:31.285Z,37.70
2018-02-23T19:45:02.683Z,38.20
2018-02-23T19:47:33.920Z,38.60
2018-02-23T19:50:05.173Z,38.90
2018-02-23T19:52:36.608Z,39.00
2018-02-23T19:55:07.875Z,39.10
2018-02-23T19:57:39.111Z,39.40
2018-02-23T20:00:10.392Z,39.70
2018-02-23T20:02:41.604Z,40.00
2018-02-23T20:05:12.935Z,40.20
2018-02-23T20:07:44.225Z,40.60
2018-02-23T20:10:15.425Z,40.90
2018-02-23T20:12:46.687Z,41.30
2018-02-23T20:15:17.931Z,41.50
2018-02-23T20:17:49.293Z,41.50
2018-02-23T20:20:20.522Z,41.50
2018-02-23T20:22:51.735Z,41.60
2018-02-23T20:25:23.692Z,41.90
2018-02-23T20:27:55.678Z,42.30
2018-02-23T20:30:26.955Z,42.20
2018-02-23T20:32:58.192Z,42.30
2018-02-23T20:35:29.409Z,42.30
2018-02-23T20:38:00.615Z,41.90
2018-02-23T20:40:31.828Z,41.50
2018-02-23T20:43:03.100Z,41.30
2018-02-23T20:45:35.096Z,41.70
2018-02-23T20:48:06.992Z,41.70
2018-02-23T20:50:38.422Z,41.60
2018-02-23T20:53:09.702Z,42.00
2018-02-23T20:55:40.918Z,42.20
2018-02-23T20:58:12.111Z,42.30
2018-02-23T21:00:44.080Z,43.20
2018-02-23T21:03:16.067Z,42.40
2018-02-23T21:05:47.284Z,43.00
2018-02-23T21:08:18.515Z,42.20
2018-02-23T21:10:49.731Z,42.20
2018-02-23T21:13:20.925Z,42.50
2018-02-23T21:15:52.886Z,43.70
2018-02-23T21:18:24.120Z,43.60
2018-02-23T21:20:56.446Z,43.90
2018-02-23T21:23:27.612Z,43.90
2018-02-23T21:25:58.886Z,44.50
2018-02-23T21:28:30.888Z,45.30
2018-02-23T21:31:02.137Z,45.20
2018-02-23T21:33:33.350Z,45.40
2018-02-23T21:36:04.782Z,45.60
2018-02-23T21:38:35.931Z,45.60
2018-02-23T21:41:08.230Z,45.70
2018-02-23T21:43:39.407Z,45.60
2018-02-23T21:46:10.646Z,45.30
2018-02-23T21:48:41.854Z,45.40
2018-02-23T21:51:13.010Z,45.50
2018-02-23T21:53:44.392Z,46.40
2018-02-23T21:56:16.377Z,46.30
2018-02-23T21:58:48.356Z,46.30
2018-02-23T22:01:19.539Z,46.30
2018-02-23T22:03:50.754Z,46.40
2018-02-23T22:06:21.984Z,46.50
2018-02-23T22:08:53.197Z,46.80
2018-02-23T22:11:24.473Z,47.20
2018-02-23T22:13:56.035Z,47.40
2018-02-23T22:16:27.214Z,47.70
2018-02-23T22:18:58.427Z,48.00
2018-02-23T22:21:29.593Z,48.00
2018-02-23T22:24:00.816Z,48.00
2018-02-23T22:26:31.994Z,48.10
2018-02-23T22:29:03.263Z,48.20
2018-02-23T22:31:49.407Z,48.30
2018-02-23T22:34:20.679Z,48.70
2018-02-23T22:36:52.638Z,49.50
2018-02-23T22:39:24.202Z,49.40
2018-02-23T22:41:55.418Z,49.70
2018-02-23T22:44:26.959Z,50.00
2018-02-23T22:46:58.172Z,50.10
2018-02-23T22:49:30.263Z,50.60
2018-02-23T22:52:01.470Z,50.60
2018-02-23T22:54:33.471Z,50.80
2018-02-23T22:57:04.690Z,50.70
2018-02-23T22:59:35.995Z,50.80
2018-02-23T23:02:07.184Z,52.10
2018-02-23T23:04:38.750Z,51.90
2018-02-23T23:07:27.759Z,52.30
2018-02-23T23:09:58.977Z,53.00
2018-02-23T23:12:30.151Z,52.50
2018-02-23T23:15:02.897Z,52.50
2018-02-23T23:17:34.075Z,52.50
2018-02-23T23:20:05.471Z,52.70
2018-02-23T23:22:36.703Z,52.70
2018-02-23T23:25:07.934Z,53.10
2018-02-23T23:27:39.912Z,53.40
2018-02-23T23:30:11.128Z,53.40
2018-02-23T23:32:42.318Z,53.80
2018-02-23T23:35:13.595Z,53.90
2018-02-23T23:37:44.836Z,53.80
2018-02-23T23:40:16.029Z,53.90
2018-02-23T23:42:47.279Z,54.00
2018-02-23T23:45:18.475Z,54.10
2018-02-23T23:47:49.714Z,54.10
2018-02-23T23:50:20.885Z,54.10
2018-02-23T23:52:53.184Z,54.60
2018-02-23T23:55:24.414Z,55.10
2018-02-23T23:57:55.643Z,54.80
